Saint Louis, MO (63101)

3:22 AM CDT on May 25, 2015 (GMT -0500)
Soulard | | Change Station
CLOSE
Current Station
Personal Weather Station
Location: Saint Louis, MO
Elevation: 535 ft
Nearby Weather Stations

Elev 535 ft 38.61 °N, 90.21 °W | Updated 9 minutes ago

Overcast
Overcast
68.0 °F
Feels Like 68.0 °F
N
0.0
Wind Variable Wind from WNW

Today
High -- | Low -- °F
--% Chance of Precip.
Yesterday
High -- | Low -- °F
Precip. -- in
5:41 AM 8:14 PM
Waxing Crescent, 46% visible
Pressure 29.84 in
Visibility 10.0 miles
Clouds Few 1300 ft
Scattered Clouds 4900 ft
Mostly Cloudy 15000 ft
Overcast 20000 ft
Dew Point 66 °F
Humidity 95%
Rainfall 0.00 in
Snow Depth Not available.
UV 0 out of 12
Pollen 6.60 out of 12
Air Quality Not available.
Flu Activity Sporadic
METAR KSTL 250751Z 18009KT 10SM FEW013 SCT049 BKN150 OVC200 22/18 A2987 RMK AO2 RAB14E28 SLP103 P0000 T02170183

More Conditions Fewer Conditions

Pressure 29.84 in
Visibility 10.0 miles
Clouds Few 1300 ft
Scattered Clouds 4900 ft
Mostly Cloudy 15000 ft
Overcast 20000 ft
Dew Point 66 °F
Humidity 95%
Rainfall 0.00 in
Snow Depth Not available.
UV 0 out of 12
Pollen 6.60 out of 12
Air Quality Not available.
Flu Activity Sporadic
METAR KSTL 250751Z 18009KT 10SM FEW013 SCT049 BKN150 OVC200 22/18 A2987 RMK AO2 RAB14E28 SLP103 P0000 T02170183

More Conditions Fewer Conditions

10-Day Weather Forecast

Almanac

Astronomy

May. 25, 2015 Rise Set
Actual Time
Civil Twilight
Nautical Twilight
Astronomical Twilight
Moon
Length of Visible Light
Length of Day
Tomorrow will be .
, % of the Moon is Illuminated

Today's Extremes

State Highs State Lows

Community

WunderPhotos

Upload Photos

1,823,959 photos uploaded!

WunderBlogs® & News

Nearby

Air Quality

  Air Quality AQ Index Pollutant
Not available.

Snow Depth

Station Depth Elevation

Earthquake Activity

City Distance Mag. Time & Date
Minimum magnitude displayed is 2.5.

Coastal Water Temperatures

Place Temperature

Stations

Nearby Weather Stations

Station Location Temp. Windchill Dew Point Humidity Wind Precip. Elev Updated Type